Hlavní strana
METAR-TAF:

METAR-TAF

Letiště :

Gibraltar, Gibraltar

Mezinárodní letiště Gibraltar

zeměpisná šířka: 36-09N, zeměpisná délka: 005-21W, výška: 5 m

Aktuální stav počasí

Zpráva byla vytvořena před 27 minutami, v 21:50 UTC
Jihojihozápadní vítr 4 kt
Teplota 17°C
Vlhkost vzduchu 94%
Tlak 1016 hPa
Viditelnost 10 km a více

METAR: LXGB 252150Z AUTO 21004KT 9999 // NCD 17/16 Q1016

Čas: 00:17 (22:17 UTC)

Předpověď počasí

Zpráva byla vytvořena před 5 hodinami a 28 minutami, v 16:49 UTC
Předpověď platná od 25 v 18 UTC do 25 v 22 UTC
vítr z různých směrů 5 kt
Viditelnost 10 km a více
Skoro jasno ve výšce 2000 ft
Polojasno ve výšce 6000 ft
Pravděpodobnost 30% :
Dočasný
od 25 v 18 UTC do 25 v 22 UTC
Viditelnost: 7000 m
Skoro jasno ve výšce 800 ft
Polojasno ve výšce 2200 ft
slabý déšť

TAF: LXGB 251649Z 2518/2522 VRB05KT 9999 FEW020 SCT060 PROB30 TEMPO 2518/2522 7000 -RA FEW008 SCT022

Stav a předpovědi počasí z více než 4 000 letišť (zprávy METAR a TAF).

Červené a žluté tečky na mapě představují dostupné meteorologické stanice.

Když kurzor umístíte na tečku, zobrazí se název stanice.

Pak kliknutím zobrazíte stav a předpověď počasí.

Chcete-li změnit mapu, kliknutím na zelené tlačítko se znaménkem +mapu přiblížíte, kliknutím na zelené tlačítko se znaménkem – mapu oddálíte a kliknutím na zelené šipky přejdete na sousední mapy.


METAR-TAF: